Richton, Mississippi
Current Conditions -  °F | °C
As of 6:42 AM on Sunday 23 Nov 2014 (Local Time) from KHBG Reporting Station
Light Rain Light Rain  
Wind Chill: 60°   Ceiling: 300
Heat Index: 60°   Visibility: 1.7mi
Dew Point: 60°   Wind: 0mph
Humidity: 100%   Direction: NA
Pressure: 29.77"   Gusts: NA
Location:  31.35°N, 88.94°W
Report Text: KHBG 231242Z AUTO 00000KT 1 3/4SM -RA BR OVC003 16/16 A2977 RMK AO2 P0001 T01560156
Loading
Personal Weather Stations






























Interactive Weather Map New forecast layout! Learn more

10-Day Weather Forecast

Advertisements
Track Severe Weather on mobile